sensor_id;sensor_type;location;lat;lon;timestamp;P1;durP1;ratioP1;P2;durP2;ratioP2
64653;SDS011;51065;48.884;12.598;2022-11-02T00:00:52;20.05;;;8.27;;
64653;SDS011;51065;48.884;12.598;2022-11-02T00:03:17;20.55;;;7.45;;
64653;SDS011;51065;48.884;12.598;2022-11-02T00:05:43;18.52;;;7.57;;
64653;SDS011;51065;48.884;12.598;2022-11-02T00:08:09;23.70;;;8.18;;
64653;SDS011;51065;48.884;12.598;2022-11-02T00:10:34;23.00;;;6.93;;
64653;SDS011;51065;48.884;12.598;2022-11-02T00:13:00;28.17;;;7.10;;
64653;SDS011;51065;48.884;12.598;2022-11-02T00:15:27;11.80;;;5.60;;
64653;SDS011;51065;48.884;12.598;2022-11-02T00:18:05;16.33;;;6.20;;
64653;SDS011;51065;48.884;12.598;2022-11-02T00:20:34;37.45;;;8.77;;
64653;SDS011;51065;48.884;12.598;2022-11-02T00:23:01;30.30;;;8.02;;
64653;SDS011;51065;48.884;12.598;2022-11-02T00:25:27;21.02;;;6.43;;
64653;SDS011;51065;48.884;12.598;2022-11-02T00:27:53;17.90;;;7.40;;
64653;SDS011;51065;48.884;12.598;2022-11-02T00:30:19;17.73;;;6.43;;
64653;SDS011;51065;48.884;12.598;2022-11-02T00:32:45;24.38;;;6.85;;
64653;SDS011;51065;48.884;12.598;2022-11-02T00:35:11;13.95;;;6.28;;
64653;SDS011;51065;48.884;12.598;2022-11-02T00:37:36;13.80;;;5.65;;
64653;SDS011;51065;48.884;12.598;2022-11-02T00:40:02;13.85;;;6.13;;
64653;SDS011;51065;48.884;12.598;2022-11-02T00:42:29;14.25;;;6.25;;
64653;SDS011;51065;48.884;12.598;2022-11-02T00:44:54;13.20;;;6.40;;
64653;SDS011;51065;48.884;12.598;2022-11-02T00:47:20;12.73;;;6.25;;
64653;SDS011;51065;48.884;12.598;2022-11-02T00:49:45;15.07;;;6.00;;
64653;SDS011;51065;48.884;12.598;2022-11-02T00:52:11;21.38;;;6.43;;
64653;SDS011;51065;48.884;12.598;2022-11-02T00:54:37;25.02;;;6.43;;
64653;SDS011;51065;48.884;12.598;2022-11-02T00:57:02;16.13;;;5.40;;
64653;SDS011;51065;48.884;12.598;2022-11-02T00:59:28;11.00;;;5.22;;
64653;SDS011;51065;48.884;12.598;2022-11-02T01:01:53;15.88;;;5.97;;
64653;SDS011;51065;48.884;12.598;2022-11-02T01:04:19;41.83;;;8.43;;
64653;SDS011;51065;48.884;12.598;2022-11-02T01:06:45;12.40;;;5.38;;
64653;SDS011;51065;48.884;12.598;2022-11-02T01:09:10;26.88;;;6.57;;
64653;SDS011;51065;48.884;12.598;2022-11-02T01:11:38;22.23;;;5.95;;
64653;SDS011;51065;48.884;12.598;2022-11-02T01:14:04;13.40;;;4.90;;
64653;SDS011;51065;48.884;12.598;2022-11-02T01:16:30;19.38;;;6.10;;
64653;SDS011;51065;48.884;12.598;2022-11-02T01:18:56;25.73;;;5.75;;
64653;SDS011;51065;48.884;12.598;2022-11-02T01:21:22;31.38;;;5.97;;
64653;SDS011;51065;48.884;12.598;2022-11-02T01:23:49;12.18;;;4.90;;
64653;SDS011;51065;48.884;12.598;2022-11-02T01:26:15;9.48;;;4.60;;
64653;SDS011;51065;48.884;12.598;2022-11-02T01:28:42;13.65;;;5.13;;
64653;SDS011;51065;48.884;12.598;2022-11-02T01:31:08;13.02;;;5.38;;
64653;SDS011;51065;48.884;12.598;2022-11-02T01:33:34;13.20;;;5.68;;
64653;SDS011;51065;48.884;12.598;2022-11-02T01:36:04;11.50;;;5.20;;
64653;SDS011;51065;48.884;12.598;2022-11-02T01:38:31;12.98;;;5.70;;
64653;SDS011;51065;48.884;12.598;2022-11-02T01:40:57;37.25;;;7.60;;
64653;SDS011;51065;48.884;12.598;2022-11-02T01:43:24;12.18;;;5.70;;
64653;SDS011;51065;48.884;12.598;2022-11-02T01:45:51;11.93;;;5.97;;
64653;SDS011;51065;48.884;12.598;2022-11-02T01:48:21;11.37;;;5.30;;
64653;SDS011;51065;48.884;12.598;2022-11-02T01:50:58;13.05;;;5.43;;
64653;SDS011;51065;48.884;12.598;2022-11-02T01:53:27;11.65;;;5.53;;
64653;SDS011;51065;48.884;12.598;2022-11-02T01:55:54;20.42;;;5.97;;
64653;SDS011;51065;48.884;12.598;2022-11-02T01:58:20;17.08;;;6.40;;
64653;SDS011;51065;48.884;12.598;2022-11-02T02:00:46;51.20;;;8.38;;
64653;SDS011;51065;48.884;12.598;2022-11-02T02:03:13;23.17;;;6.30;;
64653;SDS011;51065;48.884;12.598;2022-11-02T02:05:43;24.38;;;6.30;;
64653;SDS011;51065;48.884;12.598;2022-11-02T02:08:11;15.57;;;5.25;;
64653;SDS011;51065;48.884;12.598;2022-11-02T02:10:41;23.23;;;6.47;;
64653;SDS011;51065;48.884;12.598;2022-11-02T02:13:06;55.22;;;9.52;;
64653;SDS011;51065;48.884;12.598;2022-11-02T02:16:07;76.45;;;8.95;;
64653;SDS011;51065;48.884;12.598;2022-11-02T02:18:46;9.32;;;4.70;;
64653;SDS011;51065;48.884;12.598;2022-11-02T02:24:33;11.75;;;5.50;;
64653;SDS011;51065;48.884;12.598;2022-11-02T02:32:44;18.40;;;5.38;;
64653;SDS011;51065;48.884;12.598;2022-11-02T02:35:21;11.23;;;5.72;;
64653;SDS011;51065;48.884;12.598;2022-11-02T02:37:53;48.30;;;8.35;;
64653;SDS011;51065;48.884;12.598;2022-11-02T02:40:29;10.07;;;4.95;;
64653;SDS011;51065;48.884;12.598;2022-11-02T02:43:02;11.38;;;5.25;;
64653;SDS011;51065;48.884;12.598;2022-11-02T02:45:43;14.13;;;5.20;;
64653;SDS011;51065;48.884;12.598;2022-11-02T02:48:21;10.43;;;4.63;;
64653;SDS011;51065;48.884;12.598;2022-11-02T02:50:49;20.42;;;7.68;;
64653;SDS011;51065;48.884;12.598;2022-11-02T02:53:16;50.85;;;8.88;;
64653;SDS011;51065;48.884;12.598;2022-11-02T02:55:46;11.10;;;5.32;;
64653;SDS011;51065;48.884;12.598;2022-11-02T02:58:17;12.20;;;5.72;;
64653;SDS011;51065;48.884;12.598;2022-11-02T03:03:14;16.92;;;5.88;;
64653;SDS011;51065;48.884;12.598;2022-11-02T03:05:42;32.08;;;7.95;;
64653;SDS011;51065;48.884;12.598;2022-11-02T03:08:20;14.80;;;5.65;;
64653;SDS011;51065;48.884;12.598;2022-11-02T03:11:04;15.38;;;6.32;;
64653;SDS011;51065;48.884;12.598;2022-11-02T03:17:00;11.27;;;5.40;;
64653;SDS011;51065;48.884;12.598;2022-11-02T03:26:05;12.05;;;5.63;;
64653;SDS011;51065;48.884;12.598;2022-11-02T03:30:53;12.65;;;5.85;;
64653;SDS011;51065;48.884;12.598;2022-11-02T03:33:25;13.70;;;6.13;;
64653;SDS011;51065;48.884;12.598;2022-11-02T03:36:04;12.32;;;5.63;;
64653;SDS011;51065;48.884;12.598;2022-11-02T03:38:35;17.83;;;6.72;;
64653;SDS011;51065;48.884;12.598;2022-11-02T03:41:09;14.05;;;5.78;;
64653;SDS011;51065;48.884;12.598;2022-11-02T03:43:36;13.25;;;6.20;;
64653;SDS011;51065;48.884;12.598;2022-11-02T03:46:05;13.40;;;6.10;;
64653;SDS011;51065;48.884;12.598;2022-11-02T03:48:35;15.10;;;6.35;;
64653;SDS011;51065;48.884;12.598;2022-11-02T03:51:09;15.77;;;5.95;;
64653;SDS011;51065;48.884;12.598;2022-11-02T03:56:25;15.40;;;6.57;;
64653;SDS011;51065;48.884;12.598;2022-11-02T03:59:03;15.13;;;6.38;;
64653;SDS011;51065;48.884;12.598;2022-11-02T04:01:29;15.88;;;5.90;;
64653;SDS011;51065;48.884;12.598;2022-11-02T04:04:02;19.52;;;6.85;;
64653;SDS011;51065;48.884;12.598;2022-11-02T04:06:29;18.63;;;7.28;;
64653;SDS011;51065;48.884;12.598;2022-11-02T04:08:55;18.90;;;7.82;;
64653;SDS011;51065;48.884;12.598;2022-11-02T04:11:20;17.92;;;7.22;;
64653;SDS011;51065;48.884;12.598;2022-11-02T04:14:05;20.40;;;8.18;;
64653;SDS011;51065;48.884;12.598;2022-11-02T04:16:49;20.83;;;8.52;;
64653;SDS011;51065;48.884;12.598;2022-11-02T04:19:35;17.30;;;6.90;;
64653;SDS011;51065;48.884;12.598;2022-11-02T04:22:00;19.63;;;7.25;;
64653;SDS011;51065;48.884;12.598;2022-11-02T04:24:45;20.75;;;7.47;;
64653;SDS011;51065;48.884;12.598;2022-11-02T04:27:29;22.48;;;7.97;;
64653;SDS011;51065;48.884;12.598;2022-11-02T04:29:57;19.75;;;7.78;;
64653;SDS011;51065;48.884;12.598;2022-11-02T04:32:22;19.83;;;8.55;;
64653;SDS011;51065;48.884;12.598;2022-11-02T04:35:07;27.25;;;8.10;;
64653;SDS011;51065;48.884;12.598;2022-11-02T04:37:36;21.13;;;7.25;;
64653;SDS011;51065;48.884;12.598;2022-11-02T04:40:21;36.90;;;9.80;;
64653;SDS011;51065;48.884;12.598;2022-11-02T04:42:47;26.60;;;8.25;;
64653;SDS011;51065;48.884;12.598;2022-11-02T04:45:13;23.08;;;7.07;;
64653;SDS011;51065;48.884;12.598;2022-11-02T04:47:38;21.48;;;8.05;;
64653;SDS011;51065;48.884;12.598;2022-11-02T04:50:04;19.55;;;7.18;;
64653;SDS011;51065;48.884;12.598;2022-11-02T04:52:30;35.42;;;8.80;;
64653;SDS011;51065;48.884;12.598;2022-11-02T04:54:55;23.42;;;8.15;;
64653;SDS011;51065;48.884;12.598;2022-11-02T04:57:21;17.42;;;7.53;;
64653;SDS011;51065;48.884;12.598;2022-11-02T04:59:46;19.15;;;7.60;;
64653;SDS011;51065;48.884;12.598;2022-11-02T05:02:12;16.58;;;6.82;;
64653;SDS011;51065;48.884;12.598;2022-11-02T05:04:37;22.55;;;7.60;;
64653;SDS011;51065;48.884;12.598;2022-11-02T05:07:03;17.88;;;7.10;;
64653;SDS011;51065;48.884;12.598;2022-11-02T05:09:31;18.90;;;7.57;;
64653;SDS011;51065;48.884;12.598;2022-11-02T05:11:57;18.20;;;7.07;;
64653;SDS011;51065;48.884;12.598;2022-11-02T05:14:23;16.38;;;7.13;;
64653;SDS011;51065;48.884;12.598;2022-11-02T05:16:49;17.02;;;6.88;;
64653;SDS011;51065;48.884;12.598;2022-11-02T05:19:15;15.65;;;6.10;;
64653;SDS011;51065;48.884;12.598;2022-11-02T05:21:40;15.13;;;6.70;;
64653;SDS011;51065;48.884;12.598;2022-11-02T05:24:06;18.00;;;7.03;;
64653;SDS011;51065;48.884;12.598;2022-11-02T05:26:32;15.90;;;6.57;;
64653;SDS011;51065;48.884;12.598;2022-11-02T05:28:57;17.25;;;7.03;;
64653;SDS011;51065;48.884;12.598;2022-11-02T05:31:23;14.93;;;5.65;;
64653;SDS011;51065;48.884;12.598;2022-11-02T05:33:48;15.98;;;6.97;;
64653;SDS011;51065;48.884;12.598;2022-11-02T05:36:14;16.45;;;6.63;;
64653;SDS011;51065;48.884;12.598;2022-11-02T05:38:40;17.00;;;6.65;;
64653;SDS011;51065;48.884;12.598;2022-11-02T05:41:06;15.80;;;7.25;;
64653;SDS011;51065;48.884;12.598;2022-11-02T05:43:31;13.57;;;5.97;;
64653;SDS011;51065;48.884;12.598;2022-11-02T05:45:58;16.35;;;6.57;;
64653;SDS011;51065;48.884;12.598;2022-11-02T05:48:26;16.50;;;6.88;;
64653;SDS011;51065;48.884;12.598;2022-11-02T05:50:56;14.55;;;6.00;;
64653;SDS011;51065;48.884;12.598;2022-11-02T05:53:23;13.65;;;6.30;;
64653;SDS011;51065;48.884;12.598;2022-11-02T05:55:50;14.75;;;5.63;;
64653;SDS011;51065;48.884;12.598;2022-11-02T05:58:16;16.15;;;5.95;;
64653;SDS011;51065;48.884;12.598;2022-11-02T06:00:42;19.20;;;6.75;;
64653;SDS011;51065;48.884;12.598;2022-11-02T06:03:08;18.75;;;7.22;;
64653;SDS011;51065;48.884;12.598;2022-11-02T06:05:34;14.15;;;6.07;;
64653;SDS011;51065;48.884;12.598;2022-11-02T06:08:00;17.42;;;6.82;;
64653;SDS011;51065;48.884;12.598;2022-11-02T06:10:27;19.63;;;8.57;;
64653;SDS011;51065;48.884;12.598;2022-11-02T06:12:54;18.80;;;7.63;;
64653;SDS011;51065;48.884;12.598;2022-11-02T06:15:24;16.00;;;6.95;;
64653;SDS011;51065;48.884;12.598;2022-11-02T06:17:49;18.20;;;7.32;;
64653;SDS011;51065;48.884;12.598;2022-11-02T06:20:18;15.07;;;6.43;;
64653;SDS011;51065;48.884;12.598;2022-11-02T06:22:44;18.38;;;7.55;;
64653;SDS011;51065;48.884;12.598;2022-11-02T06:25:10;19.75;;;7.68;;
64653;SDS011;51065;48.884;12.598;2022-11-02T06:27:36;18.98;;;8.05;;
64653;SDS011;51065;48.884;12.598;2022-11-02T06:30:02;19.35;;;7.82;;
64653;SDS011;51065;48.884;12.598;2022-11-02T06:32:29;16.42;;;6.80;;
64653;SDS011;51065;48.884;12.598;2022-11-02T06:34:54;17.35;;;7.70;;
64653;SDS011;51065;48.884;12.598;2022-11-02T06:37:20;15.18;;;6.50;;
64653;SDS011;51065;48.884;12.598;2022-11-02T06:39:46;16.42;;;6.88;;
64653;SDS011;51065;48.884;12.598;2022-11-02T06:42:12;20.73;;;8.95;;
64653;SDS011;51065;48.884;12.598;2022-11-02T06:44:39;19.60;;;8.57;;
64653;SDS011;51065;48.884;12.598;2022-11-02T06:47:05;18.45;;;7.57;;
64653;SDS011;51065;48.884;12.598;2022-11-02T06:49:31;21.50;;;8.18;;
64653;SDS011;51065;48.884;12.598;2022-11-02T06:51:56;15.80;;;6.97;;
64653;SDS011;51065;48.884;12.598;2022-11-02T06:54:22;18.85;;;7.72;;
64653;SDS011;51065;48.884;12.598;2022-11-02T06:56:47;16.90;;;7.10;;
64653;SDS011;51065;48.884;12.598;2022-11-02T06:59:13;34.33;;;7.50;;
64653;SDS011;51065;48.884;12.598;2022-11-02T07:01:38;19.75;;;7.25;;
64653;SDS011;51065;48.884;12.598;2022-11-02T07:04:04;18.38;;;7.55;;
64653;SDS011;51065;48.884;12.598;2022-11-02T07:06:29;22.83;;;8.23;;
64653;SDS011;51065;48.884;12.598;2022-11-02T07:08:55;22.58;;;7.22;;
64653;SDS011;51065;48.884;12.598;2022-11-02T07:11:21;24.80;;;8.10;;
64653;SDS011;51065;48.884;12.598;2022-11-02T07:13:46;16.90;;;7.60;;
64653;SDS011;51065;48.884;12.598;2022-11-02T07:16:12;18.52;;;7.75;;
64653;SDS011;51065;48.884;12.598;2022-11-02T07:18:39;18.42;;;7.15;;
64653;SDS011;51065;48.884;12.598;2022-11-02T07:21:05;18.48;;;7.90;;
64653;SDS011;51065;48.884;12.598;2022-11-02T07:23:31;20.05;;;7.95;;
64653;SDS011;51065;48.884;12.598;2022-11-02T07:25:57;22.67;;;8.48;;
64653;SDS011;51065;48.884;12.598;2022-11-02T07:28:24;20.42;;;8.13;;
64653;SDS011;51065;48.884;12.598;2022-11-02T07:30:52;18.08;;;7.18;;
64653;SDS011;51065;48.884;12.598;2022-11-02T07:33:18;19.40;;;8.10;;
64653;SDS011;51065;48.884;12.598;2022-11-02T07:35:44;18.48;;;7.22;;
64653;SDS011;51065;48.884;12.598;2022-11-02T07:38:09;21.58;;;7.82;;
64653;SDS011;51065;48.884;12.598;2022-11-02T07:40:35;18.80;;;7.13;;
64653;SDS011;51065;48.884;12.598;2022-11-02T07:43:01;19.40;;;7.50;;
64653;SDS011;51065;48.884;12.598;2022-11-02T07:45:26;21.42;;;7.57;;
64653;SDS011;51065;48.884;12.598;2022-11-02T07:47:53;21.48;;;7.80;;
64653;SDS011;51065;48.884;12.598;2022-11-02T07:50:20;19.08;;;7.32;;
64653;SDS011;51065;48.884;12.598;2022-11-02T07:52:49;20.25;;;7.95;;
64653;SDS011;51065;48.884;12.598;2022-11-02T07:55:17;23.70;;;8.88;;
64653;SDS011;51065;48.884;12.598;2022-11-02T07:57:57;19.15;;;7.18;;
64653;SDS011;51065;48.884;12.598;2022-11-02T08:00:24;18.92;;;7.47;;
64653;SDS011;51065;48.884;12.598;2022-11-02T08:02:52;19.02;;;7.38;;
64653;SDS011;51065;48.884;12.598;2022-11-02T08:05:19;24.38;;;8.45;;
64653;SDS011;51065;48.884;12.598;2022-11-02T08:07:45;21.45;;;7.15;;
64653;SDS011;51065;48.884;12.598;2022-11-02T08:10:11;19.48;;;7.35;;
64653;SDS011;51065;48.884;12.598;2022-11-02T08:12:36;18.95;;;7.55;;
64653;SDS011;51065;48.884;12.598;2022-11-02T08:15:03;21.85;;;7.55;;
64653;SDS011;51065;48.884;12.598;2022-11-02T08:17:28;21.42;;;7.45;;
64653;SDS011;51065;48.884;12.598;2022-11-02T08:19:54;22.75;;;8.55;;
64653;SDS011;51065;48.884;12.598;2022-11-02T08:22:20;19.35;;;7.30;;
64653;SDS011;51065;48.884;12.598;2022-11-02T08:24:45;19.70;;;7.78;;
64653;SDS011;51065;48.884;12.598;2022-11-02T08:27:11;19.98;;;7.82;;
64653;SDS011;51065;48.884;12.598;2022-11-02T08:29:36;18.15;;;6.80;;
64653;SDS011;51065;48.884;12.598;2022-11-02T08:32:02;18.73;;;7.10;;
64653;SDS011;51065;48.884;12.598;2022-11-02T08:34:27;20.55;;;7.25;;
64653;SDS011;51065;48.884;12.598;2022-11-02T08:36:53;19.88;;;7.32;;
64653;SDS011;51065;48.884;12.598;2022-11-02T08:39:19;17.95;;;7.47;;
64653;SDS011;51065;48.884;12.598;2022-11-02T08:41:44;17.88;;;7.22;;
64653;SDS011;51065;48.884;12.598;2022-11-02T08:44:10;19.50;;;7.47;;
64653;SDS011;51065;48.884;12.598;2022-11-02T08:46:35;20.23;;;7.43;;
64653;SDS011;51065;48.884;12.598;2022-11-02T08:49:01;19.15;;;8.02;;
64653;SDS011;51065;48.884;12.598;2022-11-02T08:51:27;19.88;;;8.07;;
64653;SDS011;51065;48.884;12.598;2022-11-02T08:53:52;21.42;;;8.75;;
64653;SDS011;51065;48.884;12.598;2022-11-02T08:56:18;19.77;;;8.32;;
64653;SDS011;51065;48.884;12.598;2022-11-02T08:58:43;20.67;;;8.13;;
64653;SDS011;51065;48.884;12.598;2022-11-02T09:01:09;22.88;;;8.77;;
64653;SDS011;51065;48.884;12.598;2022-11-02T09:03:35;19.52;;;8.07;;
64653;SDS011;51065;48.884;12.598;2022-11-02T09:06:00;21.75;;;8.50;;
64653;SDS011;51065;48.884;12.598;2022-11-02T09:08:26;20.42;;;8.57;;
64653;SDS011;51065;48.884;12.598;2022-11-02T09:10:53;21.70;;;10.00;;
64653;SDS011;51065;48.884;12.598;2022-11-02T09:13:23;20.13;;;8.60;;
64653;SDS011;51065;48.884;12.598;2022-11-02T09:15:52;21.25;;;8.55;;
64653;SDS011;51065;48.884;12.598;2022-11-02T09:18:19;20.98;;;8.80;;
64653;SDS011;51065;48.884;12.598;2022-11-02T09:20:45;21.63;;;8.90;;
64653;SDS011;51065;48.884;12.598;2022-11-02T09:23:12;20.67;;;7.78;;
64653;SDS011;51065;48.884;12.598;2022-11-02T09:25:39;20.92;;;8.52;;
64653;SDS011;51065;48.884;12.598;2022-11-02T09:28:04;21.15;;;8.75;;
64653;SDS011;51065;48.884;12.598;2022-11-02T09:30:30;18.63;;;8.13;;
64653;SDS011;51065;48.884;12.598;2022-11-02T09:32:56;18.05;;;7.82;;
64653;SDS011;51065;48.884;12.598;2022-11-02T09:35:27;18.80;;;7.70;;
64653;SDS011;51065;48.884;12.598;2022-11-02T09:37:55;19.70;;;8.68;;
64653;SDS011;51065;48.884;12.598;2022-11-02T09:40:21;35.30;;;19.92;;
64653;SDS011;51065;48.884;12.598;2022-11-02T09:43:10;20.45;;;9.93;;
64653;SDS011;51065;48.884;12.598;2022-11-02T09:45:52;21.52;;;8.85;;
64653;SDS011;51065;48.884;12.598;2022-11-02T09:48:24;16.92;;;6.85;;
64653;SDS011;51065;48.884;12.598;2022-11-02T09:50:55;20.48;;;8.75;;
64653;SDS011;51065;48.884;12.598;2022-11-02T09:53:43;17.98;;;6.97;;
64653;SDS011;51065;48.884;12.598;2022-11-02T09:56:17;17.83;;;7.20;;
64653;SDS011;51065;48.884;12.598;2022-11-02T09:58:44;17.30;;;7.13;;
64653;SDS011;51065;48.884;12.598;2022-11-02T10:01:27;20.35;;;8.40;;
64653;SDS011;51065;48.884;12.598;2022-11-02T10:06:46;17.80;;;7.57;;
64653;SDS011;51065;48.884;12.598;2022-11-02T10:09:53;18.10;;;7.50;;
64653;SDS011;51065;48.884;12.598;2022-11-02T10:12:30;18.08;;;7.43;;
64653;SDS011;51065;48.884;12.598;2022-11-02T10:15:01;18.20;;;7.07;;
64653;SDS011;51065;48.884;12.598;2022-11-02T10:17:28;18.38;;;7.57;;
64653;SDS011;51065;48.884;12.598;2022-11-02T10:19:58;19.98;;;10.77;;
64653;SDS011;51065;48.884;12.598;2022-11-02T10:22:32;16.98;;;7.60;;
64653;SDS011;51065;48.884;12.598;2022-11-02T10:25:03;17.92;;;6.72;;
64653;SDS011;51065;48.884;12.598;2022-11-02T10:27:32;15.63;;;7.55;;
64653;SDS011;51065;48.884;12.598;2022-11-02T10:30:13;14.48;;;6.95;;
64653;SDS011;51065;48.884;12.598;2022-11-02T10:32:42;14.43;;;6.38;;
64653;SDS011;51065;48.884;12.598;2022-11-02T10:35:33;15.20;;;6.22;;
64653;SDS011;51065;48.884;12.598;2022-11-02T10:51:41;12.93;;;5.70;;
64653;SDS011;51065;48.884;12.598;2022-11-02T10:54:10;12.93;;;5.53;;
64653;SDS011;51065;48.884;12.598;2022-11-02T10:56:38;15.00;;;5.80;;
64653;SDS011;51065;48.884;12.598;2022-11-02T10:59:12;13.73;;;5.28;;
64653;SDS011;51065;48.884;12.598;2022-11-02T11:04:26;13.73;;;5.43;;
64653;SDS011;51065;48.884;12.598;2022-11-02T11:06:53;15.32;;;5.35;;
64653;SDS011;51065;48.884;12.598;2022-11-02T11:09:27;11.93;;;5.15;;
64653;SDS011;51065;48.884;12.598;2022-11-02T11:11:57;12.75;;;5.38;;
64653;SDS011;51065;48.884;12.598;2022-11-02T11:14:26;13.18;;;5.70;;
64653;SDS011;51065;48.884;12.598;2022-11-02T11:16:54;15.25;;;5.82;;
64653;SDS011;51065;48.884;12.598;2022-11-02T11:22:20;11.88;;;4.85;;
64653;SDS011;51065;48.884;12.598;2022-11-02T11:24:49;13.55;;;5.35;;
64653;SDS011;51065;48.884;12.598;2022-11-02T11:27:18;13.95;;;5.70;;
64653;SDS011;51065;48.884;12.598;2022-11-02T11:32:24;12.80;;;4.97;;
64653;SDS011;51065;48.884;12.598;2022-11-02T11:35:02;14.18;;;5.13;;
64653;SDS011;51065;48.884;12.598;2022-11-02T11:37:46;15.15;;;5.65;;
64653;SDS011;51065;48.884;12.598;2022-11-02T11:40:34;12.80;;;5.75;;
64653;SDS011;51065;48.884;12.598;2022-11-02T11:43:03;12.13;;;5.07;;
64653;SDS011;51065;48.884;12.598;2022-11-02T11:45:34;13.20;;;4.72;;
64653;SDS011;51065;48.884;12.598;2022-11-02T11:50:57;12.38;;;4.85;;
64653;SDS011;51065;48.884;12.598;2022-11-02T11:53:25;11.48;;;4.95;;
64653;SDS011;51065;48.884;12.598;2022-11-02T11:55:58;10.77;;;4.80;;
64653;SDS011;51065;48.884;12.598;2022-11-02T11:58:31;11.70;;;4.72;;
64653;SDS011;51065;48.884;12.598;2022-11-02T12:03:27;14.52;;;5.40;;
64653;SDS011;51065;48.884;12.598;2022-11-02T12:14:06;12.50;;;4.53;;
64653;SDS011;51065;48.884;12.598;2022-11-02T12:30:46;12.10;;;4.43;;
64653;SDS011;51065;48.884;12.598;2022-11-02T12:36:22;13.88;;;4.55;;
64653;SDS011;51065;48.884;12.598;2022-11-02T12:41:32;9.68;;;4.10;;
64653;SDS011;51065;48.884;12.598;2022-11-02T12:44:05;12.20;;;4.50;;
64653;SDS011;51065;48.884;12.598;2022-11-02T12:46:42;9.60;;;4.32;;
64653;SDS011;51065;48.884;12.598;2022-11-02T12:49:41;15.30;;;5.20;;
64653;SDS011;51065;48.884;12.598;2022-11-02T12:52:16;10.32;;;4.70;;
64653;SDS011;51065;48.884;12.598;2022-11-02T12:54:54;10.63;;;4.47;;
64653;SDS011;51065;48.884;12.598;2022-11-02T12:57:23;12.02;;;4.70;;
64653;SDS011;51065;48.884;12.598;2022-11-02T12:59:53;11.77;;;4.68;;
64653;SDS011;51065;48.884;12.598;2022-11-02T13:02:43;14.88;;;5.00;;
64653;SDS011;51065;48.884;12.598;2022-11-02T13:05:26;11.00;;;4.47;;
64653;SDS011;51065;48.884;12.598;2022-11-02T13:08:15;12.05;;;4.60;;
64653;SDS011;51065;48.884;12.598;2022-11-02T13:10:44;12.32;;;4.78;;
64653;SDS011;51065;48.884;12.598;2022-11-02T13:13:15;12.68;;;4.13;;
64653;SDS011;51065;48.884;12.598;2022-11-02T13:15:44;10.23;;;4.05;;
64653;SDS011;51065;48.884;12.598;2022-11-02T13:20:51;11.10;;;4.30;;
64653;SDS011;51065;48.884;12.598;2022-11-02T13:25:58;9.00;;;4.00;;
64653;SDS011;51065;48.884;12.598;2022-11-02T13:28:39;9.52;;;3.97;;
64653;SDS011;51065;48.884;12.598;2022-11-02T13:31:15;9.13;;;4.00;;
64653;SDS011;51065;48.884;12.598;2022-11-02T13:36:18;10.95;;;3.97;;
64653;SDS011;51065;48.884;12.598;2022-11-02T13:38:45;10.77;;;4.53;;
64653;SDS011;51065;48.884;12.598;2022-11-02T13:41:29;10.52;;;4.15;;
64653;SDS011;51065;48.884;12.598;2022-11-02T13:49:38;16.63;;;6.00;;
64653;SDS011;51065;48.884;12.598;2022-11-02T13:52:10;15.32;;;5.65;;
64653;SDS011;51065;48.884;12.598;2022-11-02T13:54:47;13.75;;;5.38;;
64653;SDS011;51065;48.884;12.598;2022-11-02T13:57:34;11.75;;;4.70;;
64653;SDS011;51065;48.884;12.598;2022-11-02T14:00:01;12.57;;;4.22;;
64653;SDS011;51065;48.884;12.598;2022-11-02T14:02:30;10.43;;;3.83;;
64653;SDS011;51065;48.884;12.598;2022-11-02T14:05:00;11.23;;;4.57;;
64653;SDS011;51065;48.884;12.598;2022-11-02T14:10:00;11.50;;;4.45;;
64653;SDS011;51065;48.884;12.598;2022-11-02T14:12:39;11.65;;;4.07;;
64653;SDS011;51065;48.884;12.598;2022-11-02T14:20:32;11.00;;;4.28;;
64653;SDS011;51065;48.884;12.598;2022-11-02T14:25:45;14.13;;;3.63;;
64653;SDS011;51065;48.884;12.598;2022-11-02T14:49:01;7.63;;;2.90;;
64653;SDS011;51065;48.884;12.598;2022-11-02T14:51:29;10.57;;;2.97;;
64653;SDS011;51065;48.884;12.598;2022-11-02T14:53:57;12.88;;;3.10;;
64653;SDS011;51065;48.884;12.598;2022-11-02T14:59:35;13.55;;;3.97;;
64653;SDS011;51065;48.884;12.598;2022-11-02T15:02:05;10.15;;;3.40;;
64653;SDS011;51065;48.884;12.598;2022-11-02T15:04:48;11.10;;;2.95;;
64653;SDS011;51065;48.884;12.598;2022-11-02T15:07:21;10.50;;;2.80;;
64653;SDS011;51065;48.884;12.598;2022-11-02T15:10:01;9.85;;;2.80;;
64653;SDS011;51065;48.884;12.598;2022-11-02T15:12:40;11.63;;;3.05;;
64653;SDS011;51065;48.884;12.598;2022-11-02T15:17:52;8.20;;;2.97;;
64653;SDS011;51065;48.884;12.598;2022-11-02T15:22:49;10.65;;;3.50;;
64653;SDS011;51065;48.884;12.598;2022-11-02T15:25:35;9.75;;;3.33;;
64653;SDS011;51065;48.884;12.598;2022-11-02T15:28:15;13.27;;;3.83;;
64653;SDS011;51065;48.884;12.598;2022-11-02T15:30:50;15.85;;;4.80;;
64653;SDS011;51065;48.884;12.598;2022-11-02T15:36:04;15.32;;;4.68;;
64653;SDS011;51065;48.884;12.598;2022-11-02T15:38:32;14.43;;;5.45;;
64653;SDS011;51065;48.884;12.598;2022-11-02T15:46:26;15.75;;;5.00;;
64653;SDS011;51065;48.884;12.598;2022-11-02T15:49:18;10.48;;;4.07;;
64653;SDS011;51065;48.884;12.598;2022-11-02T15:55:27;16.33;;;4.50;;
64653;SDS011;51065;48.884;12.598;2022-11-02T16:03:58;10.02;;;3.72;;
64653;SDS011;51065;48.884;12.598;2022-11-02T16:09:23;15.40;;;5.00;;
64653;SDS011;51065;48.884;12.598;2022-11-02T16:12:17;16.20;;;6.03;;
64653;SDS011;51065;48.884;12.598;2022-11-02T16:15:29;15.07;;;6.05;;
64653;SDS011;51065;48.884;12.598;2022-11-02T16:17:37;15.73;;;5.30;;
64653;SDS011;51065;48.884;12.598;2022-11-02T16:20:08;15.48;;;5.93;;
64653;SDS011;51065;48.884;12.598;2022-11-02T16:22:50;17.25;;;5.25;;
64653;SDS011;51065;48.884;12.598;2022-11-02T16:25:27;22.00;;;9.75;;
64653;SDS011;51065;48.884;12.598;2022-11-02T16:33:55;19.13;;;8.02;;
64653;SDS011;51065;48.884;12.598;2022-11-02T16:36:40;18.70;;;7.55;;
64653;SDS011;51065;48.884;12.598;2022-11-02T16:41:37;19.67;;;7.65;;
64653;SDS011;51065;48.884;12.598;2022-11-02T16:44:15;15.65;;;7.07;;
64653;SDS011;51065;48.884;12.598;2022-11-02T16:49:23;14.57;;;5.90;;
64653;SDS011;51065;48.884;12.598;2022-11-02T16:54:23;16.58;;;6.32;;
64653;SDS011;51065;48.884;12.598;2022-11-02T16:56:55;18.20;;;6.65;;
64653;SDS011;51065;48.884;12.598;2022-11-02T16:59:26;18.60;;;6.25;;
64653;SDS011;51065;48.884;12.598;2022-11-02T17:01:56;19.75;;;6.63;;
64653;SDS011;51065;48.884;12.598;2022-11-02T17:04:24;17.85;;;7.07;;
64653;SDS011;51065;48.884;12.598;2022-11-02T17:06:54;16.90;;;6.25;;
64653;SDS011;51065;48.884;12.598;2022-11-02T17:09:37;15.23;;;6.20;;
64653;SDS011;51065;48.884;12.598;2022-11-02T17:12:04;19.45;;;7.40;;
64653;SDS011;51065;48.884;12.598;2022-11-02T17:14:33;18.10;;;5.95;;
64653;SDS011;51065;48.884;12.598;2022-11-02T17:17:00;17.75;;;6.55;;
64653;SDS011;51065;48.884;12.598;2022-11-02T17:22:24;16.35;;;6.30;;
64653;SDS011;51065;48.884;12.598;2022-11-02T17:25:01;19.67;;;8.48;;
64653;SDS011;51065;48.884;12.598;2022-11-02T17:27:29;20.25;;;7.35;;
64653;SDS011;51065;48.884;12.598;2022-11-02T17:29:57;21.83;;;8.95;;
64653;SDS011;51065;48.884;12.598;2022-11-02T17:32:23;21.63;;;8.90;;